sensor_id;sensor_type;location;lat;lon;timestamp;temperature;humidity
68274;SHT30;55104;47.356;19.448;2023-07-02T00:00:29;20.13;83.72
68274;SHT30;55104;47.356;19.448;2023-07-02T00:03:31;20.16;83.39
68274;SHT30;55104;47.356;19.448;2023-07-02T00:06:34;20.20;83.24
68274;SHT30;55104;47.356;19.448;2023-07-02T00:09:42;20.20;83.42
68274;SHT30;55104;47.356;19.448;2023-07-02T00:12:43;20.27;83.43
68274;SHT30;55104;47.356;19.448;2023-07-02T00:15:46;20.30;83.28
68274;SHT30;55104;47.356;19.448;2023-07-02T00:18:48;20.29;83.33
68274;SHT30;55104;47.356;19.448;2023-07-02T00:21:54;20.29;83.73
68274;SHT30;55104;47.356;19.448;2023-07-02T00:24:57;20.30;83.24
68274;SHT30;55104;47.356;19.448;2023-07-02T00:27:59;20.29;83.25
68274;SHT30;55104;47.356;19.448;2023-07-02T00:31:01;20.33;83.28
68274;SHT30;55104;47.356;19.448;2023-07-02T00:34:04;20.37;83.22
68274;SHT30;55104;47.356;19.448;2023-07-02T00:37:06;20.30;83.61
68274;SHT30;55104;47.356;19.448;2023-07-02T00:40:08;20.33;83.73
68274;SHT30;55104;47.356;19.448;2023-07-02T00:43:10;20.34;83.72
68274;SHT30;55104;47.356;19.448;2023-07-02T00:46:16;20.36;83.78
68274;SHT30;55104;47.356;19.448;2023-07-02T00:49:20;20.36;83.48
68274;SHT30;55104;47.356;19.448;2023-07-02T00:52:23;20.37;83.21
68274;SHT30;55104;47.356;19.448;2023-07-02T00:55:26;20.33;83.50
68274;SHT30;55104;47.356;19.448;2023-07-02T00:58:29;20.34;83.47
68274;SHT30;55104;47.356;19.448;2023-07-02T01:01:31;20.33;83.75
68274;SHT30;55104;47.356;19.448;2023-07-02T01:04:40;20.31;83.73
68274;SHT30;55104;47.356;19.448;2023-07-02T01:07:42;20.30;83.66
68274;SHT30;55104;47.356;19.448;2023-07-02T01:10:47;20.27;83.68
68274;SHT30;55104;47.356;19.448;2023-07-02T01:13:51;20.21;83.93
68274;SHT30;55104;47.356;19.448;2023-07-02T01:16:55;20.13;84.18
68274;SHT30;55104;47.356;19.448;2023-07-02T01:19:58;20.08;84.47
68274;SHT30;55104;47.356;19.448;2023-07-02T01:23:01;20.03;84.71
68274;SHT30;55104;47.356;19.448;2023-07-02T01:26:04;19.97;84.87
68274;SHT30;55104;47.356;19.448;2023-07-02T01:29:32;19.87;85.60
68274;SHT30;55104;47.356;19.448;2023-07-02T01:32:38;19.85;85.39
68274;SHT30;55104;47.356;19.448;2023-07-02T01:35:41;19.79;85.53
68274;SHT30;55104;47.356;19.448;2023-07-02T01:38:44;19.78;85.67
68274;SHT30;55104;47.356;19.448;2023-07-02T01:41:53;19.74;85.80
68274;SHT30;55104;47.356;19.448;2023-07-02T01:44:56;19.69;85.90
68274;SHT30;55104;47.356;19.448;2023-07-02T01:47:57;19.66;86.37
68274;SHT30;55104;47.356;19.448;2023-07-02T01:50:59;19.64;86.45
68274;SHT30;55104;47.356;19.448;2023-07-02T01:54:01;19.59;86.55
68274;SHT30;55104;47.356;19.448;2023-07-02T01:57:04;19.59;86.50
68274;SHT30;55104;47.356;19.448;2023-07-02T02:00:07;19.58;86.72
68274;SHT30;55104;47.356;19.448;2023-07-02T02:03:17;19.57;86.78
68274;SHT30;55104;47.356;19.448;2023-07-02T02:06:19;19.53;87.30
68274;SHT30;55104;47.356;19.448;2023-07-02T02:09:21;19.46;87.24
68274;SHT30;55104;47.356;19.448;2023-07-02T02:12:23;19.46;87.28
68274;SHT30;55104;47.356;19.448;2023-07-02T02:15:25;19.40;87.32
68274;SHT30;55104;47.356;19.448;2023-07-02T02:18:27;19.37;87.48
68274;SHT30;55104;47.356;19.448;2023-07-02T02:21:30;19.30;87.80
68274;SHT30;55104;47.356;19.448;2023-07-02T02:24:32;19.28;87.70
68274;SHT30;55104;47.356;19.448;2023-07-02T02:27:34;19.26;87.98
68274;SHT30;55104;47.356;19.448;2023-07-02T02:30:36;19.21;88.28
68274;SHT30;55104;47.356;19.448;2023-07-02T02:33:39;19.17;88.46
68274;SHT30;55104;47.356;19.448;2023-07-02T02:36:41;19.20;88.21
68274;SHT30;55104;47.356;19.448;2023-07-02T02:39:43;19.24;88.15
68274;SHT30;55104;47.356;19.448;2023-07-02T02:42:45;19.26;88.42
68274;SHT30;55104;47.356;19.448;2023-07-02T02:45:48;19.20;88.38
68274;SHT30;55104;47.356;19.448;2023-07-02T02:48:50;19.16;88.42
68274;SHT30;55104;47.356;19.448;2023-07-02T02:51:53;19.19;88.72
68274;SHT30;55104;47.356;19.448;2023-07-02T02:54:55;19.17;88.74
68274;SHT30;55104;47.356;19.448;2023-07-02T02:57:57;19.14;88.68
68274;SHT30;55104;47.356;19.448;2023-07-02T03:00:59;19.21;88.54
68274;SHT30;55104;47.356;19.448;2023-07-02T03:04:01;19.23;88.70
68274;SHT30;55104;47.356;19.448;2023-07-02T03:07:03;19.26;88.27
68274;SHT30;55104;47.356;19.448;2023-07-02T03:10:06;19.28;88.10
68274;SHT30;55104;47.356;19.448;2023-07-02T03:13:09;19.28;88.36
68274;SHT30;55104;47.356;19.448;2023-07-02T03:16:11;19.34;87.93
68274;SHT30;55104;47.356;19.448;2023-07-02T03:19:13;19.40;87.85
68274;SHT30;55104;47.356;19.448;2023-07-02T03:22:17;19.43;87.62
68274;SHT30;55104;47.356;19.448;2023-07-02T03:25:19;19.50;87.41
68274;SHT30;55104;47.356;19.448;2023-07-02T03:28:21;19.54;87.16
68274;SHT30;55104;47.356;19.448;2023-07-02T03:31:23;19.58;86.89
68274;SHT30;55104;47.356;19.448;2023-07-02T03:34:26;19.66;86.73
68274;SHT30;55104;47.356;19.448;2023-07-02T03:37:28;19.71;86.84
68274;SHT30;55104;47.356;19.448;2023-07-02T03:40:30;19.78;86.79
68274;SHT30;55104;47.356;19.448;2023-07-02T03:43:32;19.82;86.57
68274;SHT30;55104;47.356;19.448;2023-07-02T03:46:35;19.81;86.65
68274;SHT30;55104;47.356;19.448;2023-07-02T03:49:37;20.00;86.21
68274;SHT30;55104;47.356;19.448;2023-07-02T03:52:39;20.06;85.72
68274;SHT30;55104;47.356;19.448;2023-07-02T03:55:41;20.17;85.33
68274;SHT30;55104;47.356;19.448;2023-07-02T03:58:43;20.29;84.70
68274;SHT30;55104;47.356;19.448;2023-07-02T04:01:45;20.40;84.51
68274;SHT30;55104;47.356;19.448;2023-07-02T04:04:47;20.51;83.85
68274;SHT30;55104;47.356;19.448;2023-07-02T04:07:49;20.71;83.42
68274;SHT30;55104;47.356;19.448;2023-07-02T04:10:51;20.82;82.63
68274;SHT30;55104;47.356;19.448;2023-07-02T04:13:53;20.86;82.78
68274;SHT30;55104;47.356;19.448;2023-07-02T04:16:56;21.07;82.00
68274;SHT30;55104;47.356;19.448;2023-07-02T04:19:59;21.07;81.67
68274;SHT30;55104;47.356;19.448;2023-07-02T04:23:02;21.29;81.30
68274;SHT30;55104;47.356;19.448;2023-07-02T04:26:04;21.46;80.46
68274;SHT30;55104;47.356;19.448;2023-07-02T04:29:26;21.30;80.44
68274;SHT30;55104;47.356;19.448;2023-07-02T04:32:28;21.51;79.81
68274;SHT30;55104;47.356;19.448;2023-07-02T04:35:30;21.54;79.78
68274;SHT30;55104;47.356;19.448;2023-07-02T04:38:32;21.71;79.06
68274;SHT30;55104;47.356;19.448;2023-07-02T04:41:34;21.92;77.34
68274;SHT30;55104;47.356;19.448;2023-07-02T04:44:36;21.88;77.19
68274;SHT30;55104;47.356;19.448;2023-07-02T04:47:38;21.84;77.25
68274;SHT30;55104;47.356;19.448;2023-07-02T04:50:41;21.85;76.71
68274;SHT30;55104;47.356;19.448;2023-07-02T04:53:43;21.81;76.08
68274;SHT30;55104;47.356;19.448;2023-07-02T04:56:46;21.86;76.20
68274;SHT30;55104;47.356;19.448;2023-07-02T04:59:48;21.98;75.31
68274;SHT30;55104;47.356;19.448;2023-07-02T05:02:50;22.02;75.81
68274;SHT30;55104;47.356;19.448;2023-07-02T05:05:52;22.02;75.66
68274;SHT30;55104;47.356;19.448;2023-07-02T05:08:54;22.10;74.94
68274;SHT30;55104;47.356;19.448;2023-07-02T05:11:57;22.24;73.99
68274;SHT30;55104;47.356;19.448;2023-07-02T05:14:59;22.24;73.31
68274;SHT30;55104;47.356;19.448;2023-07-02T05:18:01;22.43;73.41
68274;SHT30;55104;47.356;19.448;2023-07-02T05:21:03;22.78;72.01
68274;SHT30;55104;47.356;19.448;2023-07-02T05:24:08;23.02;71.38
68274;SHT30;55104;47.356;19.448;2023-07-02T05:27:10;23.40;70.41
68274;SHT30;55104;47.356;19.448;2023-07-02T05:30:12;24.04;67.69
68274;SHT30;55104;47.356;19.448;2023-07-02T05:33:14;24.81;66.32
68274;SHT30;55104;47.356;19.448;2023-07-02T05:36:16;25.12;64.79
68274;SHT30;55104;47.356;19.448;2023-07-02T05:39:18;26.01;61.93
68274;SHT30;55104;47.356;19.448;2023-07-02T05:42:20;26.13;61.77
68274;SHT30;55104;47.356;19.448;2023-07-02T05:45:22;26.04;61.44
68274;SHT30;55104;47.356;19.448;2023-07-02T05:48:25;26.36;61.21
68274;SHT30;55104;47.356;19.448;2023-07-02T05:51:27;26.42;60.18
68274;SHT30;55104;47.356;19.448;2023-07-02T05:54:29;26.75;59.88
68274;SHT30;55104;47.356;19.448;2023-07-02T05:57:31;27.31;58.36
68274;SHT30;55104;47.356;19.448;2023-07-02T06:00:33;27.23;57.08
68274;SHT30;55104;47.356;19.448;2023-07-02T06:03:35;26.94;58.80
68274;SHT30;55104;47.356;19.448;2023-07-02T06:06:38;27.31;57.20
68274;SHT30;55104;47.356;19.448;2023-07-02T06:09:39;27.30;58.02
68274;SHT30;55104;47.356;19.448;2023-07-02T06:12:41;27.41;57.46
68274;SHT30;55104;47.356;19.448;2023-07-02T06:15:45;27.25;57.89
68274;SHT30;55104;47.356;19.448;2023-07-02T06:18:48;27.04;57.76
68274;SHT30;55104;47.356;19.448;2023-07-02T06:21:51;26.41;59.63
68274;SHT30;55104;47.356;19.448;2023-07-02T06:24:53;25.80;61.40
68274;SHT30;55104;47.356;19.448;2023-07-02T06:27:55;25.98;60.59
68274;SHT30;55104;47.356;19.448;2023-07-02T06:31:00;25.80;62.87
68274;SHT30;55104;47.356;19.448;2023-07-02T06:34:02;25.50;61.39
68274;SHT30;55104;47.356;19.448;2023-07-02T06:37:04;25.11;61.94
68274;SHT30;55104;47.356;19.448;2023-07-02T06:40:07;25.16;63.06
68274;SHT30;55104;47.356;19.448;2023-07-02T06:43:10;24.87;62.77
68274;SHT30;55104;47.356;19.448;2023-07-02T06:46:12;24.88;63.73
68274;SHT30;55104;47.356;19.448;2023-07-02T06:49:15;24.78;63.54
68274;SHT30;55104;47.356;19.448;2023-07-02T06:52:17;24.87;63.32
68274;SHT30;55104;47.356;19.448;2023-07-02T06:55:19;24.94;63.68
68274;SHT30;55104;47.356;19.448;2023-07-02T06:58:21;24.99;63.69
68274;SHT30;55104;47.356;19.448;2023-07-02T07:01:23;24.86;64.23
68274;SHT30;55104;47.356;19.448;2023-07-02T07:04:25;25.14;63.36
68274;SHT30;55104;47.356;19.448;2023-07-02T07:07:28;25.47;63.08
68274;SHT30;55104;47.356;19.448;2023-07-02T07:10:30;25.52;63.61
68274;SHT30;55104;47.356;19.448;2023-07-02T07:13:36;25.87;62.53
68274;SHT30;55104;47.356;19.448;2023-07-02T07:16:38;25.52;61.81
68274;SHT30;55104;47.356;19.448;2023-07-02T07:19:40;25.21;62.83
68274;SHT30;55104;47.356;19.448;2023-07-02T07:22:43;25.14;62.97
68274;SHT30;55104;47.356;19.448;2023-07-02T07:25:45;25.31;63.41
68274;SHT30;55104;47.356;19.448;2023-07-02T07:28:47;25.50;63.05
68274;SHT30;55104;47.356;19.448;2023-07-02T07:31:49;25.71;61.56
68274;SHT30;55104;47.356;19.448;2023-07-02T07:34:51;25.96;60.16
68274;SHT30;55104;47.356;19.448;2023-07-02T07:37:53;26.01;61.51
68274;SHT30;55104;47.356;19.448;2023-07-02T07:40:55;26.31;61.57
68274;SHT30;55104;47.356;19.448;2023-07-02T07:43:57;26.52;59.93
68274;SHT30;55104;47.356;19.448;2023-07-02T07:47:00;26.63;59.43
68274;SHT30;55104;47.356;19.448;2023-07-02T07:50:02;26.84;60.01
68274;SHT30;55104;47.356;19.448;2023-07-02T07:53:04;26.69;61.57
68274;SHT30;55104;47.356;19.448;2023-07-02T07:56:06;27.01;59.01
68274;SHT30;55104;47.356;19.448;2023-07-02T07:59:08;27.41;59.29
68274;SHT30;55104;47.356;19.448;2023-07-02T08:02:10;27.83;58.39
68274;SHT30;55104;47.356;19.448;2023-07-02T08:05:13;27.49;57.58
68274;SHT30;55104;47.356;19.448;2023-07-02T08:08:15;27.61;56.55
68274;SHT30;55104;47.356;19.448;2023-07-02T08:11:17;27.58;55.89
68274;SHT30;55104;47.356;19.448;2023-07-02T08:14:19;27.48;58.88
68274;SHT30;55104;47.356;19.448;2023-07-02T08:17:21;27.62;57.33
68274;SHT30;55104;47.356;19.448;2023-07-02T08:20:23;27.63;58.33
68274;SHT30;55104;47.356;19.448;2023-07-02T08:23:25;27.65;54.81
68274;SHT30;55104;47.356;19.448;2023-07-02T08:26:27;27.59;55.70
68274;SHT30;55104;47.356;19.448;2023-07-02T08:29:30;27.31;55.07
68274;SHT30;55104;47.356;19.448;2023-07-02T08:32:32;27.25;57.37
68274;SHT30;55104;47.356;19.448;2023-07-02T08:35:35;27.51;54.69
68274;SHT30;55104;47.356;19.448;2023-07-02T08:38:37;27.85;53.63
68274;SHT30;55104;47.356;19.448;2023-07-02T08:41:44;28.03;53.90
68274;SHT30;55104;47.356;19.448;2023-07-02T08:44:47;28.41;52.07
68274;SHT30;55104;47.356;19.448;2023-07-02T08:47:50;28.55;51.84
68274;SHT30;55104;47.356;19.448;2023-07-02T08:50:52;29.04;51.18
68274;SHT30;55104;47.356;19.448;2023-07-02T08:53:56;28.75;50.49
68274;SHT30;55104;47.356;19.448;2023-07-02T08:56:58;29.07;50.03
68274;SHT30;55104;47.356;19.448;2023-07-02T09:00:00;28.96;48.87
68274;SHT30;55104;47.356;19.448;2023-07-02T09:03:15;28.83;50.89
68274;SHT30;55104;47.356;19.448;2023-07-02T09:06:18;28.58;49.92
68274;SHT30;55104;47.356;19.448;2023-07-02T09:09:20;28.48;50.38
68274;SHT30;55104;47.356;19.448;2023-07-02T09:15:25;28.80;49.25
68274;SHT30;55104;47.356;19.448;2023-07-02T09:18:27;28.44;51.05
68274;SHT30;55104;47.356;19.448;2023-07-02T09:21:44;28.75;50.76
68274;SHT30;55104;47.356;19.448;2023-07-02T09:24:54;28.83;48.79
68274;SHT30;55104;47.356;19.448;2023-07-02T09:27:56;29.24;46.45
68274;SHT30;55104;47.356;19.448;2023-07-02T09:30:58;29.45;46.06
68274;SHT30;55104;47.356;19.448;2023-07-02T09:34:03;29.39;46.14
68274;SHT30;55104;47.356;19.448;2023-07-02T09:37:05;29.76;46.28
68274;SHT30;55104;47.356;19.448;2023-07-02T09:40:08;29.66;43.99
68274;SHT30;55104;47.356;19.448;2023-07-02T09:43:11;29.28;44.37
68274;SHT30;55104;47.356;19.448;2023-07-02T09:46:13;29.18;45.20
68274;SHT30;55104;47.356;19.448;2023-07-02T09:49:17;29.07;44.86
68274;SHT30;55104;47.356;19.448;2023-07-02T09:52:22;29.08;45.93
68274;SHT30;55104;47.356;19.448;2023-07-02T09:55:24;29.25;47.81
68274;SHT30;55104;47.356;19.448;2023-07-02T09:58:26;29.44;47.33
68274;SHT30;55104;47.356;19.448;2023-07-02T10:01:29;29.25;45.86
68274;SHT30;55104;47.356;19.448;2023-07-02T10:04:45;29.30;46.76
68274;SHT30;55104;47.356;19.448;2023-07-02T10:07:47;29.24;46.00
68274;SHT30;55104;47.356;19.448;2023-07-02T10:10:49;28.90;44.86
68274;SHT30;55104;47.356;19.448;2023-07-02T10:13:58;29.10;45.09
68274;SHT30;55104;47.356;19.448;2023-07-02T10:17:01;29.45;44.47
68274;SHT30;55104;47.356;19.448;2023-07-02T10:20:05;29.50;44.38
68274;SHT30;55104;47.356;19.448;2023-07-02T10:23:13;29.52;44.96
68274;SHT30;55104;47.356;19.448;2023-07-02T10:26:17;29.54;44.69
68274;SHT30;55104;47.356;19.448;2023-07-02T10:29:19;29.30;45.50
68274;SHT30;55104;47.356;19.448;2023-07-02T10:32:29;29.62;46.53
68274;SHT30;55104;47.356;19.448;2023-07-02T10:35:32;29.37;44.92
68274;SHT30;55104;47.356;19.448;2023-07-02T10:38:35;29.33;45.08
68274;SHT30;55104;47.356;19.448;2023-07-02T10:41:37;29.27;44.86
68274;SHT30;55104;47.356;19.448;2023-07-02T10:44:52;29.54;45.92
68274;SHT30;55104;47.356;19.448;2023-07-02T10:47:54;28.86;47.55
68274;SHT30;55104;47.356;19.448;2023-07-02T10:50:56;28.48;48.46
68274;SHT30;55104;47.356;19.448;2023-07-02T10:53:59;28.55;48.21
68274;SHT30;55104;47.356;19.448;2023-07-02T10:57:02;28.59;48.34
68274;SHT30;55104;47.356;19.448;2023-07-02T11:00:05;28.53;49.28
68274;SHT30;55104;47.356;19.448;2023-07-02T11:03:19;28.82;49.30
68274;SHT30;55104;47.356;19.448;2023-07-02T11:06:21;28.73;48.89
68274;SHT30;55104;47.356;19.448;2023-07-02T11:09:23;29.08;48.80
68274;SHT30;55104;47.356;19.448;2023-07-02T11:12:30;29.57;46.57
68274;SHT30;55104;47.356;19.448;2023-07-02T11:15:35;29.75;47.59
68274;SHT30;55104;47.356;19.448;2023-07-02T11:18:37;29.82;46.98
68274;SHT30;55104;47.356;19.448;2023-07-02T11:21:51;29.93;48.48
68274;SHT30;55104;47.356;19.448;2023-07-02T11:24:53;30.21;48.26
68274;SHT30;55104;47.356;19.448;2023-07-02T11:28:04;30.40;43.93
68274;SHT30;55104;47.356;19.448;2023-07-02T11:31:06;30.24;45.43
68274;SHT30;55104;47.356;19.448;2023-07-02T11:34:18;30.12;46.50
68274;SHT30;55104;47.356;19.448;2023-07-02T11:37:23;29.75;45.92
68274;SHT30;55104;47.356;19.448;2023-07-02T11:40:26;30.02;44.84
68274;SHT30;55104;47.356;19.448;2023-07-02T11:43:28;29.55;44.84
68274;SHT30;55104;47.356;19.448;2023-07-02T11:46:30;29.82;44.82
68274;SHT30;55104;47.356;19.448;2023-07-02T11:49:32;29.61;45.83
68274;SHT30;55104;47.356;19.448;2023-07-02T11:52:34;29.58;46.04
68274;SHT30;55104;47.356;19.448;2023-07-02T11:55:36;29.82;47.11
68274;SHT30;55104;47.356;19.448;2023-07-02T11:58:40;29.57;48.06
68274;SHT30;55104;47.356;19.448;2023-07-02T12:01:42;29.41;47.91
68274;SHT30;55104;47.356;19.448;2023-07-02T12:04:44;30.02;46.70
68274;SHT30;55104;47.356;19.448;2023-07-02T12:07:47;30.03;46.79
68274;SHT30;55104;47.356;19.448;2023-07-02T12:10:49;30.05;46.76
68274;SHT30;55104;47.356;19.448;2023-07-02T12:13:51;29.96;48.16
68274;SHT30;55104;47.356;19.448;2023-07-02T12:16:53;30.21;46.37
68274;SHT30;55104;47.356;19.448;2023-07-02T12:19:56;29.99;47.12
68274;SHT30;55104;47.356;19.448;2023-07-02T12:22:58;29.85;44.80
68274;SHT30;55104;47.356;19.448;2023-07-02T12:26:02;29.57;46.01
68274;SHT30;55104;47.356;19.448;2023-07-02T12:29:04;29.95;46.41
68274;SHT30;55104;47.356;19.448;2023-07-02T12:32:06;30.02;45.45
68274;SHT30;55104;47.356;19.448;2023-07-02T12:35:08;30.14;43.79
68274;SHT30;55104;47.356;19.448;2023-07-02T12:38:12;30.07;45.10
68274;SHT30;55104;47.356;19.448;2023-07-02T12:41:14;29.99;44.08
68274;SHT30;55104;47.356;19.448;2023-07-02T12:44:16;30.26;44.29
68274;SHT30;55104;47.356;19.448;2023-07-02T12:47:18;29.71;43.37
68274;SHT30;55104;47.356;19.448;2023-07-02T12:50:20;29.73;44.70
68274;SHT30;55104;47.356;19.448;2023-07-02T12:53:23;30.02;44.33
68274;SHT30;55104;47.356;19.448;2023-07-02T12:56:25;29.33;45.03
68274;SHT30;55104;47.356;19.448;2023-07-02T12:59:27;29.59;44.21
68274;SHT30;55104;47.356;19.448;2023-07-02T13:02:29;29.68;44.92
68274;SHT30;55104;47.356;19.448;2023-07-02T13:05:31;29.43;46.28
68274;SHT30;55104;47.356;19.448;2023-07-02T13:08:33;29.71;45.43
68274;SHT30;55104;47.356;19.448;2023-07-02T13:11:36;29.95;44.61
68274;SHT30;55104;47.356;19.448;2023-07-02T13:14:40;30.03;44.83
68274;SHT30;55104;47.356;19.448;2023-07-02T13:17:42;29.89;45.22
68274;SHT30;55104;47.356;19.448;2023-07-02T13:20:45;29.97;44.94
68274;SHT30;55104;47.356;19.448;2023-07-02T13:23:47;29.90;45.81
68274;SHT30;55104;47.356;19.448;2023-07-02T13:26:50;30.28;45.46
68274;SHT30;55104;47.356;19.448;2023-07-02T13:29:52;29.72;45.61
68274;SHT30;55104;47.356;19.448;2023-07-02T13:32:54;29.99;45.03
68274;SHT30;55104;47.356;19.448;2023-07-02T13:35:57;29.68;44.68
68274;SHT30;55104;47.356;19.448;2023-07-02T13:38:59;29.82;45.42
68274;SHT30;55104;47.356;19.448;2023-07-02T13:42:01;29.65;45.17
68274;SHT30;55104;47.356;19.448;2023-07-02T13:45:03;29.51;46.13
68274;SHT30;55104;47.356;19.448;2023-07-02T13:48:05;29.52;44.68
68274;SHT30;55104;47.356;19.448;2023-07-02T13:51:07;29.80;46.53
68274;SHT30;55104;47.356;19.448;2023-07-02T13:54:12;29.38;45.88
68274;SHT30;55104;47.356;19.448;2023-07-02T13:57:14;29.00;45.19
68274;SHT30;55104;47.356;19.448;2023-07-02T14:00:17;29.30;44.26
68274;SHT30;55104;47.356;19.448;2023-07-02T14:03:19;29.10;44.96
68274;SHT30;55104;47.356;19.448;2023-07-02T14:06:21;29.41;45.76
68274;SHT30;55104;47.356;19.448;2023-07-02T14:09:23;29.24;45.05
68274;SHT30;55104;47.356;19.448;2023-07-02T14:12:25;29.27;43.87
68274;SHT30;55104;47.356;19.448;2023-07-02T14:15:27;28.95;45.31
68274;SHT30;55104;47.356;19.448;2023-07-02T14:18:29;28.90;45.56
68274;SHT30;55104;47.356;19.448;2023-07-02T14:21:32;28.63;45.69
68274;SHT30;55104;47.356;19.448;2023-07-02T14:24:34;29.02;44.87
68274;SHT30;55104;47.356;19.448;2023-07-02T14:27:36;28.82;44.89
68274;SHT30;55104;47.356;19.448;2023-07-02T14:30:38;29.02;45.01
68274;SHT30;55104;47.356;19.448;2023-07-02T14:33:40;29.14;45.16
68274;SHT30;55104;47.356;19.448;2023-07-02T14:36:42;29.44;43.74
68274;SHT30;55104;47.356;19.448;2023-07-02T14:39:44;29.95;43.54
68274;SHT30;55104;47.356;19.448;2023-07-02T14:43:02;30.34;42.46
68274;SHT30;55104;47.356;19.448;2023-07-02T14:46:06;29.76;42.15
68274;SHT30;55104;47.356;19.448;2023-07-02T14:49:08;29.37;43.07
68274;SHT30;55104;47.356;19.448;2023-07-02T14:52:10;29.16;43.57
68274;SHT30;55104;47.356;19.448;2023-07-02T14:55:14;28.62;44.68
68274;SHT30;55104;47.356;19.448;2023-07-02T14:58:17;28.33;46.39
68274;SHT30;55104;47.356;19.448;2023-07-02T15:01:19;28.38;45.60
68274;SHT30;55104;47.356;19.448;2023-07-02T15:04:22;28.20;46.27
68274;SHT30;55104;47.356;19.448;2023-07-02T15:07:24;27.85;46.82
68274;SHT30;55104;47.356;19.448;2023-07-02T15:10:26;27.58;47.32
68274;SHT30;55104;47.356;19.448;2023-07-02T15:13:28;27.70;48.41
68274;SHT30;55104;47.356;19.448;2023-07-02T15:16:31;27.90;48.07
68274;SHT30;55104;47.356;19.448;2023-07-02T15:19:33;28.01;46.84
68274;SHT30;55104;47.356;19.448;2023-07-02T15:22:35;28.15;45.95
68274;SHT30;55104;47.356;19.448;2023-07-02T15:25:37;28.48;46.14
68274;SHT30;55104;47.356;19.448;2023-07-02T15:28:39;28.56;46.78
68274;SHT30;55104;47.356;19.448;2023-07-02T15:31:41;28.47;47.25
68274;SHT30;55104;47.356;19.448;2023-07-02T15:34:47;28.17;47.77
68274;SHT30;55104;47.356;19.448;2023-07-02T15:37:49;28.51;47.56
68274;SHT30;55104;47.356;19.448;2023-07-02T15:41:04;28.61;46.71
68274;SHT30;55104;47.356;19.448;2023-07-02T15:44:07;28.80;46.57
68274;SHT30;55104;47.356;19.448;2023-07-02T15:47:09;28.93;47.00
68274;SHT30;55104;47.356;19.448;2023-07-02T15:50:10;29.16;47.60
68274;SHT30;55104;47.356;19.448;2023-07-02T15:53:13;28.96;47.58
68274;SHT30;55104;47.356;19.448;2023-07-02T15:56:15;28.78;46.87
68274;SHT30;55104;47.356;19.448;2023-07-02T15:59:17;28.65;47.64
68274;SHT30;55104;47.356;19.448;2023-07-02T16:02:19;28.52;47.27
68274;SHT30;55104;47.356;19.448;2023-07-02T16:05:24;28.33;47.36
68274;SHT30;55104;47.356;19.448;2023-07-02T16:08:27;28.17;47.85
68274;SHT30;55104;47.356;19.448;2023-07-02T16:11:29;28.22;47.66
68274;SHT30;55104;47.356;19.448;2023-07-02T16:14:35;28.18;47.27
68274;SHT30;55104;47.356;19.448;2023-07-02T16:17:39;28.33;47.04
68274;SHT30;55104;47.356;19.448;2023-07-02T16:20:41;28.38;46.93
68274;SHT30;55104;47.356;19.448;2023-07-02T16:23:43;28.40;46.20
68274;SHT30;55104;47.356;19.448;2023-07-02T16:26:46;28.33;46.96
68274;SHT30;55104;47.356;19.448;2023-07-02T16:29:49;28.29;45.58
68274;SHT30;55104;47.356;19.448;2023-07-02T16:32:51;28.25;45.99
68274;SHT30;55104;47.356;19.448;2023-07-02T16:35:53;28.24;46.07
68274;SHT30;55104;47.356;19.448;2023-07-02T16:38:55;28.11;45.91
68274;SHT30;55104;47.356;19.448;2023-07-02T16:41:57;28.33;45.09
68274;SHT30;55104;47.356;19.448;2023-07-02T16:44:59;28.24;44.70
68274;SHT30;55104;47.356;19.448;2023-07-02T16:48:07;27.80;43.82
68274;SHT30;55104;47.356;19.448;2023-07-02T16:51:09;27.76;44.63
68274;SHT30;55104;47.356;19.448;2023-07-02T16:54:13;27.76;44.64
68274;SHT30;55104;47.356;19.448;2023-07-02T16:57:18;27.59;43.91
68274;SHT30;55104;47.356;19.448;2023-07-02T17:00:20;27.41;43.76
68274;SHT30;55104;47.356;19.448;2023-07-02T17:03:22;27.38;44.36
68274;SHT30;55104;47.356;19.448;2023-07-02T17:06:24;27.25;44.64
68274;SHT30;55104;47.356;19.448;2023-07-02T17:09:29;27.23;45.50
68274;SHT30;55104;47.356;19.448;2023-07-02T17:12:34;27.11;46.33
68274;SHT30;55104;47.356;19.448;2023-07-02T17:15:37;27.03;46.70
68274;SHT30;55104;47.356;19.448;2023-07-02T17:18:39;26.86;47.89
68274;SHT30;55104;47.356;19.448;2023-07-02T17:21:41;26.75;48.80
68274;SHT30;55104;47.356;19.448;2023-07-02T17:24:45;26.73;49.56
68274;SHT30;55104;47.356;19.448;2023-07-02T17:27:47;26.66;50.45
68274;SHT30;55104;47.356;19.448;2023-07-02T17:30:49;26.51;50.95
68274;SHT30;55104;47.356;19.448;2023-07-02T17:33:54;26.41;51.62
68274;SHT30;55104;47.356;19.448;2023-07-02T17:36:58;26.33;51.35
68274;SHT30;55104;47.356;19.448;2023-07-02T17:40:01;26.31;51.51
68274;SHT30;55104;47.356;19.448;2023-07-02T17:43:03;26.13;51.07
68274;SHT30;55104;47.356;19.448;2023-07-02T17:46:06;26.08;51.43
68274;SHT30;55104;47.356;19.448;2023-07-02T17:49:09;25.97;51.72
68274;SHT30;55104;47.356;19.448;2023-07-02T17:52:14;25.81;51.62
68274;SHT30;55104;47.356;19.448;2023-07-02T17:55:16;25.79;51.14
68274;SHT30;55104;47.356;19.448;2023-07-02T17:58:18;25.66;51.53
68274;SHT30;55104;47.356;19.448;2023-07-02T18:01:20;25.54;52.30
68274;SHT30;55104;47.356;19.448;2023-07-02T18:04:23;25.43;52.29
68274;SHT30;55104;47.356;19.448;2023-07-02T18:07:28;25.32;51.88
68274;SHT30;55104;47.356;19.448;2023-07-02T18:10:30;25.16;52.48
68274;SHT30;55104;47.356;19.448;2023-07-02T18:13:32;25.08;52.16
68274;SHT30;55104;47.356;19.448;2023-07-02T18:16:35;24.99;52.90
68274;SHT30;55104;47.356;19.448;2023-07-02T18:19:37;24.91;52.92
68274;SHT30;55104;47.356;19.448;2023-07-02T18:22:39;24.73;53.67
68274;SHT30;55104;47.356;19.448;2023-07-02T18:25:42;24.61;54.44
68274;SHT30;55104;47.356;19.448;2023-07-02T18:28:44;24.50;54.40
68274;SHT30;55104;47.356;19.448;2023-07-02T18:31:46;24.39;54.92
68274;SHT30;55104;47.356;19.448;2023-07-02T18:34:48;24.25;55.51
68274;SHT30;55104;47.356;19.448;2023-07-02T18:37:51;24.08;55.81
68274;SHT30;55104;47.356;19.448;2023-07-02T18:41:04;23.91;56.31
68274;SHT30;55104;47.356;19.448;2023-07-02T18:44:07;23.88;56.74
68274;SHT30;55104;47.356;19.448;2023-07-02T18:47:11;23.88;56.60
68274;SHT30;55104;47.356;19.448;2023-07-02T18:50:15;23.77;57.18
68274;SHT30;55104;47.356;19.448;2023-07-02T18:53:19;23.73;57.44
68274;SHT30;55104;47.356;19.448;2023-07-02T18:56:21;23.59;58.73
68274;SHT30;55104;47.356;19.448;2023-07-02T18:59:24;23.46;58.91